Flight Track Log - Related Links

Times and Time Zones

All times are in EST time to prevent confusion due to time zone crossing. See the PDT4314 flight status page for this flight to view local times or setup timezone preferences in your user account.

Time Position Orientation Groundspeed Altitude Reporting Facility
EST Latitude Longitude Course Direction KTS MPH feet Rate Location/Type
Sun 06:34:07 PM 39.9000 -75.2000 57° Northeast 124 143 1,200  Level Philadelphia TRACON
Sun 06:35:06 PM 39.9167 -75.1667 57° Northeast 156 180 2,300 1,160 Climbing Philadelphia TRACON
Sun 06:36:06 PM 39.9667 -75.1333 27° Northeast 170 196 3,500 1,450 Climbing Philadelphia TRACON
Sun 06:37:06 PM 40.0167 -75.1500 346° North 165 190 5,200 1,429 Climbing Philadelphia TRACON
Sun 06:38:12 PM 40.0500 -75.1833 323° Northwest 141 162 6,500 1,190 Climbing Philadelphia TRACON
Sun 06:39:12 PM 40.0833 -75.2167 323° Northwest 150 173 7,700 1,150 Climbing Philadelphia TRACON
Sun 06:40:12 PM 40.1000 -75.2500 303° West 152 175 8,800 624 Climbing Philadelphia TRACON
Sun 06:41:17 PM 40.1322 -75.2989 311° West 164 189 9,000 190 Climbing New York Center
Sun 06:42:18 PM 40.1606 -75.3644 300° West 191 220 9,200 415 Climbing New York Center
Sun 06:45:23 PM 40.2383 -75.5378 331° Northwest 201 231 10,700 632 Climbing New York Center
Sun 06:46:25 PM 40.2881 -75.5700 334° Northwest 194 223 11,800 629 Climbing New York Center
Sun 06:47:27 PM 40.3306 -75.6014 331° Northwest 183 211 12,000 98 Climbing New York Center
Sun 06:48:28 PM 40.3869 -75.6353 335° Northwest 208 239 12,000 585 Level New York Center
Sun 06:49:30 PM 40.4378 -75.6672 334° Northwest 194 223 13,200 486 Climbing New York Center
Sun 06:52:35 PM 40.5775 -75.7675 332° Northwest 208 239 14,000 194 Climbing New York Center
Sun 06:53:37 PM 40.6356 -75.8044 334° Northwest 219 252 14,000  Level New York Center
Sun 06:54:38 PM 40.6919 -75.8453 331° Northwest 219 252 14,000  Level New York Center
Sun 06:55:40 PM 40.7519 -75.8825 335° Northwest 224 258 14,000 48 Level New York Center
Sun 06:56:42 PM 40.8053 -75.9192 333° Northwest 224 258 14,100 613 Climbing New York Center
Sun 06:58:46 PM 40.9069 -75.9869 332° Northwest 184 212 15,900 390 Climbing New York Center
Sun 07:01:50 PM 41.0603 -76.0961 21° North 211 243 16,100 49 Climbing New York Center
Sun 07:02:52 PM 41.1189 -76.1319 335° Northwest 218 251 16,100  Level New York Center
Sun 07:03:54 PM 41.1725 -76.1669 334° Northwest 221 254 16,100  Level New York Center
Sun 07:04:55 PM 41.2283 -76.2094 330° Northwest 221 254 16,100  Level New York Center
Sun 07:05:57 PM 41.3039 -76.1994 North 268 308 16,100  Level New York Center
Sun 07:06:59 PM 41.3811 -76.1894 North 265 305 16,100 -341 Level New York Center
Sun 07:07:00 PM 41.3153 -76.1924 21° North  Level FlightAware Approximate
Sun 07:08:00 PM 41.4517 -76.1925 358° North 263 303 15,400  Level New York Center
Sun 07:09:02 PM 41.5342 -76.1897 North 281 323 14,300 -1,005 Descending New York Center
Sun 07:11:05 PM 41.6992 -76.1728 North 282 325 12,300 -973 Descending New York Center
Sun 07:12:07 PM 41.7733 -76.1733 360° North 279 321 11,300 -976 Descending New York Center
Sun 07:13:08 PM 41.8533 -76.1658 North 278 320 10,300 -976 Descending New York Center
Sun 07:14:10 PM 41.9250 -76.1544 North 274 315 9,300 -1,016 Descending New York Center
Sun 07:15:12 PM 42.0042 -76.1603 357° North 252 290 8,200 -976 Descending New York Center
Sun 07:16:13 PM 42.0650 -76.1822 345° North 252 290 7,300 -927 Descending New York Center
Sun 07:17:15 PM 42.1319 -76.2028 347° North 251 289 6,300 -629 Descending New York Center
Sun 07:18:17 PM 42.1975 -76.2206 349° North 244 281 6,000 -341 Descending New York Center
Sun 07:19:18 PM 42.2597 -76.2369 349° North 233 268 5,600 -732 Descending New York Center
Sun 07:20:20 PM 42.3203 -76.2122 17° North 251 289 4,500 -1,065 Descending New York Center
Sun 07:21:22 PM 42.3358 -76.1133 78° East 250 288 3,400 -519 Descending New York Center
Sun 07:23:25 PM 42.2619 -76.0247 148° Southeast 189 217 2,900 -244 Descending New York Center
Sun 07:25:00 PM 42.2084 -75.9796 90° East  Level Estimated
Sun 07:32:00 PM 42.2084 -75.9796 90° East  Level Estimated
Sun 07:33:00 PM 42.2084 -75.9796 90° East  Level Estimated
Sun 07:34:00 PM 42.2084 -75.9796 90° East  Level Estimated
Sun 07:35:00 PM 42.2084 -75.9796 90° East  Level Estimated

Login

Don't have an account? Register now (free) for customized features, flight alerts, and more!